x

Bodega Bay - 48nm Nnw Of San Francisco, Ca (46013) Wave Buoy

11:50am - Sun 25th Jan 2015 All times are PST. -8 hours from GMT.

  • Sig Wave height 7.2ft
  • Peak Period 14s
  • Average Period 8s
  • Wind
    20mph, 25mph gusts
  • Sea Temp 55°f
  • Air Temp 53°f
  • Sea Pressure 1018.1mb
  • Bodega Bay - 48nm Nnw Of San Francisco, Ca
  • Bodega Bay - 48nm Nnw Of San Francisco, Ca

More Historic Weather Station data

Upgrade to MSW Pro to gain access to the past 30 days of data for over 8000 Wavebouys and Weather Stations around the globe.

Join Pro

Comparision Forecast

View Surf forecast
   
Sun 01/25 11:50am 7ft 14s 8s 20 25 mph 1018.1mb 55f 53f
10:50am 7.5ft 15s 7s 22 27 mph 1018.7mb 55f 52f
9:50am 8ft 15s 7s 22 27 mph 1018.9mb 55f 51f
8:50am 7.5ft 14s 7s 25 29 mph 1018.5mb 55f 51f
7:50am 8ft 15s 8s 22 27 mph 1018.7mb 55f 51f
6:50am 8.5ft 15s 9s 25 29 mph 1018.9mb 55f 51f
5:50am 8ft 15s 9s 20 25 mph 1018.6mb 55f 51f
4:50am 7.5ft 15s 8s 13 18 mph 1019.1mb 55f 51f
3:50am 8ft 15s 9s 20 22 mph 1019.1mb 55f 51f
2:50am 8ft 14s 10s 16 20 mph 1019.2mb 55f 53f
1:50am 9ft 14s 10s 16 18 mph 1019.3mb 55f 54f
12:50am 8ft 14s 10s 9 13 mph 1019.6mb 56f 55f
Sat 01/24 11:50pm 9ft 16s 11s 11 13 mph 1019.7mb 55f 55f
10:50pm 8.5ft 16s 10s 9 11 mph 1019.9mb 56f 55f
9:50pm 9.5ft 16s 11s 7 9 mph 1019.8mb 56f 56f
8:50pm 8.5ft 15s 10s 4 7 mph 1019.9mb 56f 56f
7:50pm 10ft 15s 10s 4 7 mph 1019.6mb 56f 55f
6:50pm 8.5ft 14s 10s 2 4 mph 1019.4mb 56f 56f
5:50pm 9ft 15s 10s 4 7 mph 1019.2mb 56f 56f
4:50pm 9.5ft 15s 10s 7 9 mph 1018.9mb 57f 57f
3:50pm 9ft 16s 10s 7 9 mph 1018.8mb 57f 57f
2:50pm 8ft 16s 10s 4
mph
1019.3mb 57f 57f
1:50pm 9.5ft 16s 10s 2 4 mph 1019.9mb 57f 57f
12:50pm 9.5ft 15s 11s 2 4 mph 1021.1mb 56f 56f
11:50am 9ft 17s 10s 7 9 mph 1022.2mb 56f 56f
10:50am 10ft 16s 11s 7 9 mph 1023mb 56f 55f
9:50am 9ft 16s 9s 7 9 mph 1023.1mb 56f 55f
8:50am 10ft 16s 10s 7 11 mph 1022.9mb 55f 55f
7:50am 9ft 16s 9s 4 7 mph 1022.9mb 55f 55f
6:50am 9ft 17s 9s 2 4 mph 1022.7mb 56f 56f
5:50am 9.5ft 17s 9s 2 7 mph 1022.9mb 56f 56f
4:50am 10.5ft 16s 10s 2 4 mph 1022.9mb 56f 56f
3:50am 9.5ft 16s 10s 4 7 mph 1023.1mb 56f 56f
2:50am 9ft 17s 10s 7 9 mph 1023.5mb 56f 56f
1:50am 9.5ft 17s 10s 9
mph
1023.5mb 56f 56f
12:50am 9ft 17s 9s 16 18 mph 1023.8mb 56f 57f
Fri 01/23 11:50pm 10ft 17s 10s 7 9 mph 1023.9mb 56f 56f
10:50pm 9.5ft 17s 9s 9 11 mph 1024.6mb 56f 57f
9:50pm 9ft 17s 9s 4 9 mph 1024.9mb 56f 56f
8:50pm 9ft 17s 9s 16 20 mph 1024.6mb 56f 57f
7:50pm 11ft 17s 10s 9 11 mph 1025mb 56f 57f
6:50pm 8ft 19s 9s 13 16 mph 1024.5mb 56f 57f
5:50pm 8.5ft 19s 10s 13 18 mph 1024.3mb 56f 57f
4:50pm 7.5ft 19s 10s 9 11 mph 1024.7mb 56f 56f
3:50pm 7ft 19s 9s 7 9 mph 1024.8mb 56f 56f
2:50pm 7ft 19s 10s 13 16 mph 1025.2mb 56f 56f
1:50pm 7ft 19s 9s 2 4 mph 1025.8mb 56f 53f
12:50pm 7ft 19s 9s 7 9 mph 1026.9mb 56f 53f
11:50am  -   -   -  4
mph
1027.7mb 56f 52f
10:50am 7.5ft 19s 10s 2 4 mph 1028.6mb 56f 53f
9:50am 6.5ft 19s 9s 4 7 mph 1028.6mb 56f 53f
8:50am 6ft 12s 9s 7 9 mph 1028.2mb 56f 53f
7:50am 6ft 21s 9s 9 11 mph 1027.8mb 55f 52f
6:50am 7ft 13s 9s 9 11 mph 1027.5mb 55f 52f
5:50am 7ft 13s 9s 9 11 mph 1027mb 55f 52f
4:50am 7ft 11s 9s 2 4 mph 1027.1mb 55f 54f
3:50am 6.5ft 12s 10s 7 9 mph 1027.1mb 55f 54f
2:50am 5.5ft 12s 10s 4 7 mph 1027.7mb 55f 54f
1:50am 6ft 12s 10s 4 7 mph 1027.7mb 55f 53f
12:50am 5.5ft 11s 10s 2 4 mph 1027.2mb 56f 54f
Thu 01/22 11:50pm 5.5ft 15s 10s 2
mph
1027.1mb 56f 55f
10:50pm 5ft 21s 10s 2 4 mph 1027.5mb 56f 55f
9:50pm 4.5ft 12s 9s 7
mph
1027.7mb 56f 55f
8:50pm 4.5ft 15s 9s 4 7 mph 1027mb 56f 55f
7:50pm 4.5ft 11s 9s 4 7 mph 1026.9mb 56f 55f
6:50pm 4ft 11s 8s 7 9 mph 1026.5mb 56f 55f
5:50pm 4.5ft 16s 8s 4 7 mph 1026.3mb 56f 54f
4:50pm 3.5ft 11s 8s 2 4 mph 1025.7mb 56f 55f
3:50pm 4.5ft 16s 8s 2 4 mph 1025.4mb 56f 54f
2:50pm 4.5ft 16s 8s  -  2 mph 1025.2mb 56f 54f
1:50pm 4.5ft 11s 8s 2
mph
1025.5mb 56f 53f
12:50pm 5ft 17s 7s 4
mph
1026.4mb 55f 53f
11:50am 4.5ft 10s 6s 9 11 mph 1026.2mb 55f 52f
10:50am 4.5ft 11s 6s 18 20 mph 1025.9mb 55f 51f
9:50am 4.5ft 11s 6s 16 18 mph 1025.4mb 55f 50f
8:50am 4.5ft 11s 6s 16 18 mph 1024.6mb 55f 51f
7:50am 4.5ft 11s 6s 20 27 mph 1023.7mb 55f 50f
6:50am 5ft 11s 6s 18 22 mph 1022.6mb 55f 51f
5:50am 4.5ft 12s 6s 18 22 mph 1022.4mb 55f 51f
4:50am 5ft 11s 6s 18 22 mph 1022.5mb 55f 51f
3:50am 4.5ft 11s 7s 11 13 mph 1023.2mb 55f 51f
2:50am 4.5ft 11s 7s 11 13 mph 1022.7mb 56f 54f
1:50am 4.5ft 12s 7s 7 9 mph 1022.7mb 56f 53f
12:50am 4.5ft 13s 7s 4
mph
1022.9mb 56f 53f
Wed 01/21 11:50pm 5ft 12s 8s 2 4 mph 1022.2mb 56f 53f
10:50pm 5ft 13s 7s 4 7 mph 1021.6mb 56f 54f
9:50pm 5ft 13s 7s 4
mph
1021.5mb 56f 54f